createdAt,value
2019-02-19T00:04:20.222Z,64.07
2019-02-19T00:09:26.216Z,54.60
2019-02-19T00:14:31.868Z,60.37
2019-02-19T00:19:37.685Z,54.70
2019-02-19T00:24:44.079Z,57.97
2019-02-19T00:29:49.970Z,50.20
2019-02-19T00:34:55.706Z,61.27
2019-02-19T00:40:01.785Z,53.33
2019-02-19T00:45:16.303Z,52.93
2019-02-19T00:50:15.481Z,54.33
2019-02-19T00:55:21.411Z,52.30
2019-02-19T01:00:27.128Z,51.70
2019-02-19T01:05:32.902Z,53.13
2019-02-19T01:10:38.838Z,52.50
2019-02-19T01:15:44.609Z,48.23
2019-02-19T01:20:50.865Z,46.03
2019-02-19T01:25:56.798Z,48.87
2019-02-19T01:31:02.420Z,44.07
2019-02-19T01:36:08.125Z,45.47
2019-02-19T01:41:13.866Z,48.33
2019-02-19T01:46:19.630Z,43.40
2019-02-19T01:51:25.669Z,43.83
2019-02-19T01:56:31.609Z,46.53
2019-02-19T02:01:37.235Z,45.47
2019-02-19T02:06:43.932Z,43.64
2019-02-19T02:11:49.540Z,48.30
2019-02-19T02:16:55.162Z,50.73
2019-02-19T02:22:01.596Z,43.35
2019-02-19T02:27:07.940Z,41.42
2019-02-19T02:32:13.597Z,45.17
2019-02-19T02:37:19.486Z,45.03
2019-02-19T02:42:25.519Z,40.97
2019-02-19T02:47:31.183Z,41.73
2019-02-19T02:52:37.037Z,41.60
2019-02-19T02:57:42.653Z,41.13
2019-02-19T03:02:48.899Z,41.03
2019-02-19T03:07:57.755Z,41.58
2019-02-19T03:13:03.524Z,41.00
2019-02-19T03:18:09.485Z,40.90
2019-02-19T03:23:15.115Z,41.27
2019-02-19T03:28:20.937Z,41.53
2019-02-19T03:33:26.567Z,41.80
2019-02-19T03:38:32.655Z,42.20
2019-02-19T03:43:38.468Z,45.03
2019-02-19T03:48:44.228Z,41.53
2019-02-19T03:53:50.267Z,63.57
2019-02-19T03:58:56.219Z,34.20
2019-02-19T04:04:02.023Z,45.70
2019-02-19T04:09:08.708Z,39.90
2019-02-19T04:14:14.387Z,48.30
2019-02-19T04:19:20.138Z,34.40
2019-02-19T04:24:25.936Z,36.63
2019-02-19T04:29:31.585Z,34.30
2019-02-19T04:34:37.386Z,32.40
2019-02-19T04:39:43.289Z,37.90
2019-02-19T04:44:48.949Z,33.43
2019-02-19T04:49:55.280Z,37.60
2019-02-19T04:55:01.384Z,33.83
2019-02-19T05:00:09.115Z,30.87
2019-02-19T05:05:14.799Z,31.20
2019-02-19T05:10:20.624Z,33.73
2019-02-19T05:15:26.896Z,33.13
2019-02-19T05:20:32.885Z,33.03
2019-02-19T05:25:38.863Z,32.33
2019-02-19T05:30:44.692Z,30.57
2019-02-19T05:35:50.381Z,32.60
2019-02-19T05:40:56.003Z,30.93
2019-02-19T05:46:01.681Z,33.97
2019-02-19T05:51:07.313Z,32.80
2019-02-19T05:56:13.419Z,32.93
2019-02-19T06:01:19.641Z,31.23
2019-02-19T06:06:25.599Z,31.87
2019-02-19T06:11:31.226Z,36.63
2019-02-19T06:16:36.867Z,36.77
2019-02-19T06:21:42.705Z,35.57
2019-02-19T06:26:48.307Z,33.37
2019-02-19T06:31:54.266Z,33.07
2019-02-19T06:37:00.134Z,35.57
2019-02-19T06:42:05.726Z,47.60
2019-02-19T06:47:12.656Z,47.27
2019-02-19T06:52:18.286Z,49.93
2019-02-19T06:57:23.923Z,53.67
2019-02-19T07:02:42.405Z,53.43
2019-02-19T07:07:48.046Z,51.13
2019-02-19T07:12:53.864Z,51.77
2019-02-19T07:17:59.605Z,54.37
2019-02-19T07:23:05.521Z,55.03
2019-02-19T07:28:11.119Z,54.47
2019-02-19T07:33:16.847Z,53.37
2019-02-19T07:38:22.548Z,54.20
2019-02-19T07:43:28.473Z,55.40
2019-02-19T07:48:34.121Z,52.67
2019-02-19T07:53:39.986Z,49.30
2019-02-19T07:58:46.110Z,51.80
2019-02-19T08:03:51.727Z,54.67
2019-02-19T08:08:57.735Z,50.53
2019-02-19T08:14:03.418Z,58.00
2019-02-19T08:19:09.398Z,53.73
2019-02-19T08:24:15.085Z,54.97
2019-02-19T08:29:20.762Z,48.50
2019-02-19T08:34:27.093Z,51.83
2019-02-19T08:39:32.707Z,56.00
2019-02-19T08:44:38.565Z,51.73
2019-02-19T08:49:44.403Z,53.27
2019-02-19T08:54:50.100Z,50.00
2019-02-19T08:59:57.034Z,49.43
2019-02-19T09:05:02.725Z,52.80
2019-02-19T09:10:09.976Z,51.67
2019-02-19T09:15:16.031Z,50.27
2019-02-19T09:20:21.661Z,45.03
2019-02-19T09:25:27.602Z,45.33
2019-02-19T09:30:33.362Z,46.73
2019-02-19T09:35:39.026Z,42.60
2019-02-19T09:40:44.703Z,40.47
2019-02-19T09:45:50.572Z,35.33
2019-02-19T09:50:56.235Z,34.87
2019-02-19T09:56:02.031Z,34.23
2019-02-19T10:01:07.777Z,27.87
2019-02-19T10:06:13.639Z,25.07
2019-02-19T10:11:19.819Z,23.87
2019-02-19T10:16:25.786Z,22.30
2019-02-19T10:21:31.810Z,24.50
2019-02-19T10:26:37.882Z,25.85
2019-02-19T10:31:44.440Z,26.87
2019-02-19T10:36:50.400Z,22.17
2019-02-19T10:41:56.820Z,25.62
2019-02-19T10:47:02.696Z,26.97
2019-02-19T10:52:08.963Z,25.20
2019-02-19T10:57:14.585Z,24.97
2019-02-19T11:02:20.307Z,20.47
2019-02-19T11:07:26.528Z,20.70
2019-02-19T11:12:32.181Z,18.87
2019-02-19T11:17:38.502Z,19.98
2019-02-19T11:22:44.729Z,20.20
2019-02-19T11:27:50.616Z,20.20
2019-02-19T11:32:56.862Z,18.17
2019-02-19T11:38:02.481Z,17.00
2019-02-19T11:43:08.346Z,14.90
2019-02-19T11:48:14.813Z,13.93
2019-02-19T11:53:22.318Z,13.13
2019-02-19T11:58:28.287Z,16.63
2019-02-19T12:03:33.937Z,15.20
2019-02-19T12:08:39.827Z,19.70
2019-02-19T12:13:45.891Z,16.87
2019-02-19T12:18:52.151Z,18.27
2019-02-19T12:23:58.391Z,16.40
2019-02-19T12:29:04.093Z,18.20
2019-02-19T12:34:09.971Z,16.97
2019-02-19T12:39:16.150Z,16.13
2019-02-19T12:44:22.052Z,19.93
2019-02-19T12:49:28.709Z,18.92
2019-02-19T12:54:34.358Z,19.70
2019-02-19T12:59:40.392Z,19.60
2019-02-19T13:04:46.319Z,17.60
2019-02-19T13:09:51.974Z,15.43
2019-02-19T13:14:57.807Z,17.83
2019-02-19T13:20:04.391Z,16.20
2019-02-19T13:30:16.752Z,15.88
2019-02-19T13:35:22.840Z,14.25
2019-02-19T13:40:29.071Z,15.03
2019-02-19T13:45:34.965Z,13.17
2019-02-19T13:50:40.883Z,12.73
2019-02-19T13:55:49.600Z,13.97
2019-02-19T14:00:55.363Z,13.90
2019-02-19T14:06:01.099Z,13.57
2019-02-19T14:11:07.304Z,14.30
2019-02-19T14:16:30.748Z,14.10
2019-02-19T14:21:59.539Z,14.30
2019-02-19T14:27:30.215Z,14.53
2019-02-19T14:32:57.932Z,16.07
2019-02-19T14:38:21.266Z,15.95
2019-02-19T14:43:58.451Z,14.97
2019-02-19T14:49:36.682Z,15.50
2019-02-19T14:54:49.007Z,16.40
2019-02-19T15:00:21.890Z,16.27
2019-02-19T15:05:45.106Z,14.70
2019-02-19T15:11:08.763Z,15.77
2019-02-19T15:16:27.574Z,17.30
2019-02-19T15:21:47.085Z,14.90
2019-02-19T15:27:02.389Z,16.67
2019-02-19T15:32:25.948Z,16.90
2019-02-19T15:37:38.056Z,17.00
2019-02-19T15:42:54.613Z,17.02
2019-02-19T15:48:12.024Z,16.00
2019-02-19T15:53:27.073Z,16.93
2019-02-19T15:58:42.700Z,15.33
2019-02-19T16:03:54.714Z,16.40
2019-02-19T16:09:19.545Z,15.00
2019-02-19T16:15:02.175Z,18.97
2019-02-19T16:20:32.211Z,16.23
2019-02-19T16:26:02.149Z,17.37
2019-02-19T16:31:21.636Z,17.90
2019-02-19T16:36:55.579Z,16.73
2019-02-19T16:42:18.934Z,16.33
2019-02-19T16:47:47.503Z,17.10
2019-02-19T16:53:21.521Z,17.40
2019-02-19T16:58:32.299Z,17.37
2019-02-19T17:03:49.204Z,18.67
2019-02-19T17:09:19.716Z,19.50
2019-02-19T17:14:43.471Z,18.35
2019-02-19T17:20:21.064Z,19.63
2019-02-19T17:25:33.941Z,21.17
2019-02-19T17:30:48.830Z,21.33
2019-02-19T17:36:13.766Z,19.60
2019-02-19T17:41:37.766Z,19.23
2019-02-19T17:47:15.402Z,20.37
2019-02-19T17:52:39.901Z,22.03
2019-02-19T17:58:07.415Z,19.63
2019-02-19T18:03:34.940Z,20.50
2019-02-19T18:08:55.202Z,18.97
2019-02-19T18:14:29.047Z,19.57
2019-02-19T18:19:35.185Z,20.63
2019-02-19T18:24:41.507Z,21.23
2019-02-19T18:29:47.595Z,19.87
2019-02-19T18:34:53.271Z,21.80
2019-02-19T18:39:58.938Z,21.13
2019-02-19T18:45:04.934Z,21.67
2019-02-19T18:50:10.865Z,22.70
2019-02-19T18:55:16.483Z,21.50
2019-02-19T19:00:22.415Z,23.70
2019-02-19T19:05:28.430Z,22.30
2019-02-19T19:10:34.475Z,23.10
2019-02-19T19:15:40.402Z,25.67
2019-02-19T19:20:46.619Z,24.57
2019-02-19T19:25:52.788Z,24.40
2019-02-19T19:30:58.641Z,26.97
2019-02-19T19:36:04.414Z,23.93
2019-02-19T19:41:10.124Z,26.10
2019-02-19T19:46:16.908Z,25.10
2019-02-19T19:56:27.415Z,24.72
2019-02-19T20:01:33.466Z,24.97
2019-02-19T20:06:39.670Z,28.67
2019-02-19T20:11:45.533Z,26.17
2019-02-19T20:16:52.328Z,23.95
2019-02-19T20:21:58.474Z,27.48
2019-02-19T20:27:04.148Z,29.45
2019-02-19T20:32:09.889Z,29.00
2019-02-19T20:37:15.684Z,27.00
2019-02-19T20:42:22.304Z,27.17
2019-02-19T20:47:28.607Z,29.65
2019-02-19T20:52:34.446Z,28.17
2019-02-19T20:57:40.337Z,28.50
2019-02-19T21:02:46.352Z,32.10
2019-02-19T21:07:52.610Z,31.60
2019-02-19T21:12:58.861Z,43.63
2019-02-19T21:18:04.569Z,45.07
2019-02-19T21:23:10.474Z,44.33
2019-02-19T21:28:16.408Z,43.70
2019-02-19T21:33:22.322Z,38.47
2019-02-19T21:38:27.998Z,37.43
2019-02-19T21:43:34.324Z,32.23
2019-02-19T21:48:47.757Z,34.30
2019-02-19T21:53:47.736Z,33.47
2019-02-19T21:58:54.005Z,31.10
2019-02-19T22:03:59.619Z,33.47
2019-02-19T22:09:06.456Z,35.13
2019-02-19T22:14:12.188Z,30.12
2019-02-19T22:19:17.990Z,32.03
2019-02-19T22:24:36.587Z,22.60
2019-02-19T22:29:42.763Z,20.52
2019-02-19T22:34:48.533Z,17.37
2019-02-19T22:39:54.338Z,13.43
2019-02-19T22:45:00.262Z,13.30
2019-02-19T22:50:07.019Z,12.57
2019-02-19T22:55:31.896Z,11.60
2019-02-19T23:00:55.065Z,11.63
2019-02-19T23:06:01.143Z,11.63
2019-02-19T23:11:06.816Z,11.80
2019-02-19T23:16:12.643Z,10.63
2019-02-19T23:21:18.266Z,12.40
2019-02-19T23:26:24.113Z,13.33
2019-02-19T23:31:30.379Z,14.00
2019-02-19T23:36:57.887Z,15.93
2019-02-19T23:47:08.265Z,15.43
2019-02-19T23:52:13.927Z,13.73
2019-02-19T23:57:19.570Z,14.53
